Meteoliendo - El tiempo en Liendo - Informes METAR de Aeropuertos cercanos

Informes METAR de Aeropuertos cercanos

 

LEXJ - Santander
Actualización: 17/10/2017 14:30
Few Clouds
Few Clouds
 Viento del O
Viento: O 7 km/h, Racha: 30 km/h
Temperatura: 22°C
Rocío: 14°C
Humedad: 61%
Barómetro: 1014 hPa
Clouds: Few Clouds
Visibility: 10 km
Cloud details: Few Clouds 1219 m
2017/10/17 12:30 LEXJ 171230Z 28004G16KT 230V320 9999 FEW040 22/14 Q1014
LEAS - Asturias/Aviles
Actualización: 17/10/2017 14:30
Mist, Muy nuboso
Mist, Muy nuboso
 Viento del ONO
Viento: ONO 11 km/h
Temperatura: 17°C
Rocío: 15°C
Humedad: 88%
Barómetro: 1015 hPa
Resumen: Mist
Clouds: Muy nuboso
Visibility: 4 km
Cloud details: Parcialmente nuboso 610 m
Muy nuboso 2286 m
2017/10/17 12:30 LEAS 171230Z 29006KT 260V320 4000 BR SCT020 BKN075 17/15 Q1015 TEMPO 8000 NSW
LEBB - Bilbao
Actualización: 17/10/2017 14:30
Despejado
Despejado
 Viento del SSE
Viento: SSE 17 km/h
Temperatura: 25°C
Rocío: 14°C
Humedad: 51%
Barómetro: 1015 hPa
Resumen: Despejado
Visibility: greater than 10 km
2017/10/17 12:30 LEBB 171230Z 15009KT 110V190 CAVOK 25/14 Q1015 NOSIG
 
LEBG - Burgos/Villafría
Actualización: 17/10/2017 14:30
Parcialmente nuboso
Parcialmente nuboso
 Viento del S
Viento: S 33 km/h
Temperatura: 20°C
Rocío: 8°C
Humedad: 46%
Barómetro: 1019 hPa
Clouds: Parcialmente nuboso
Visibility: 10 km
Cloud details: Parcialmente nuboso 1280 m
Parcialmente nuboso 1524 m
2017/10/17 12:30 LEBG 171230Z 19018KT 160V220 9999 SCT042 SCT050 20/08 Q1019
LELO - Logroño
Actualización: 17/10/2017 14:00
Few Clouds
Few Clouds
 Viento del E
Viento: E 26 km/h
Temperatura: 20°C
Rocío: 12°C
Humedad: 60%
Barómetro: 1019 hPa
Clouds: Few Clouds
Visibility: 10 km
Cloud details: Few Clouds 488 m
2017/10/17 12:00 LELO 171200Z 08014KT 040V120 9999 FEW016 20/12 Q1019
LEPP - Pamplona
Actualización: 17/10/2017 14:30
Few Clouds
Few Clouds
 Viento del S
Viento: S 24 km/h
Temperatura: 23°C
Rocío: 9°C
Humedad: 41%
Barómetro: 1020 hPa
Clouds: Few Clouds
Visibility: 10 km
Cloud details: Few Clouds 853 m
2017/10/17 12:30 LEPP 171230Z 17013KT 140V200 9999 FEW028 23/09 Q1020
 
LESO - San Sebastián
Actualización: 17/10/2017 14:30
Despejado
Despejado
 Viento del S
Viento: S 19 km/h
Temperatura: 26°C
Rocío: 12°C
Humedad: 42%
Barómetro: 1015 hPa
Resumen: Despejado
Visibility: greater than 10 km
2017/10/17 12:30 LESO 171230Z 19010KT CAVOK 26/12 Q1015
LEST - Santiago de Compostela
Actualización: 17/10/2017 14:30
Parcialmente nuboso
Parcialmente nuboso
 Viento del SO
Viento: SO 20 km/h
Temperatura: 16°C
Rocío: 10°C
Humedad: 68%
Barómetro: 1016 hPa
Clouds: Parcialmente nuboso
Visibility: 10 km
Cloud details: Few Clouds 762 m
Parcialmente nuboso 1006 m
2017/10/17 12:30 LEST 171230Z 22011KT 170V290 9999 FEW025 SCT033 16/10 Q1016 NOSIG
LEVT - Vitoria
Actualización: 17/10/2017 14:30
Few Clouds
Few Clouds
 Viento del ESE
Viento: ESE 7 km/h
Temperatura: 23°C
Rocío: 10°C
Humedad: 44%
Barómetro: 1018 hPa
Clouds: Few Clouds
Visibility: 10 km
Cloud details: Few Clouds 1067 m
2017/10/17 12:30 LEVT 171230Z 12004KT 9999 FEW035 23/10 Q1018